Pagina principale
METAR-TAF:

METAR-TAF

Aeroporti :

Morlaix, Francia

latitudine: 48-36N, longitudine: 3-49W, altezza: 84 m

Osservazione

Il bollettino è stato emesso 38 minuti fa, alle 17:00 UTC
Vento 16 kt da est
Temperature 23°C
Umidità 41%
Pressione 1016 hPa
Visibilità 10 km o più
nessuna nube inferiore a 1500 m e nessun cumulonembo

METAR: LFRU 311700Z AUTO 08016KT CAVOK 23/09 Q1016

Ora: 19:38 (17:38 UTC)


TAF: mancante

Osservazioni e previsioni meteorologiche di più di 4000 aeroporti (messaggi METAR e TAF).

Le stazioni disponibili sono rappresentate dai dischi gialli e rossi sulla carta.

Puntare il mouse per vedere il nome della stazione.

Clicca sopra per visualizzare le osservazioni e previsioni meteorologiche.

Per cambiare la mappa : fare clic sui pulsanti verdi con una croce nera per ingrandire, il pulsante verde con un trattino per diminuire, o sulla freccia verde per le mappe adiacenti.


METAR-TAF: